Time,TemperatureF,DewpointF,PressureIn,WindDirection,WindDirectionDegrees,WindSpeedMPH,WindSpeedGustMPH,Humidity,HourlyPrecipIn,Conditions,Clouds,dailyrainin,SoftwareType,DateUTC
2013-01-10 00:00:00,53.9,53.9,30.44,West,260,0.0,0.0,100,0.00,CLR,,0.00,WeatherDisplay:10.37,2013-01-10 05:00:00,
2013-01-10 00:01:00,53.8,53.8,30.44,West,260,0.0,0.0,100,0.00,CLR,,0.00,WeatherDisplay:10.37,2013-01-10 05:01:00,
2013-01-10 00:03:00,53.9,53.9,30.44,West,260,0.0,0.0,100,0.00,CLR,,0.00,WeatherDisplay:10.37,2013-01-10 05:03:00,
2013-01-10 00:08:00,53.7,53.7,30.44,West,260,0.0,0.0,100,0.00,CLR,,0.00,WeatherDisplay:10.37,2013-01-10 05:08:00,
2013-01-10 00:13:00,53.5,53.5,30.44,West,260,0.0,0.0,100,0.00,CLR,,0.00,WeatherDisplay:10.37,2013-01-10 05:13:00,
2013-01-10 00:18:00,53.5,53.5,30.44,West,260,0.0,0.0,100,0.00,CLR,,0.00,WeatherDisplay:10.37,2013-01-10 05:18:00,
2013-01-10 00:23:00,53.5,53.5,30.45,West,260,0.0,0.0,100,0.00,CLR,,0.00,WeatherDisplay:10.37,2013-01-10 05:23:00,
2013-01-10 00:28:00,53.4,53.4,30.44,West,260,0.0,0.0,100,0.00,CLR,,0.00,WeatherDisplay:10.37,2013-01-10 05:28:00,
2013-01-10 00:33:00,53.4,53.4,30.44,West,260,0.0,0.0,100,0.00,CLR,,0.00,WeatherDisplay:10.37,2013-01-10 05:33:00,
2013-01-10 00:38:00,53.4,53.4,30.44,West,260,0.0,0.0,100,0.00,CLR,,0.00,WeatherDisplay:10.37,2013-01-10 05:38:00,
2013-01-10 00:43:00,53.3,53.3,30.44,West,260,0.0,0.0,100,0.00,CLR,,0.00,WeatherDisplay:10.37,2013-01-10 05:43:00,
2013-01-10 00:48:00,53.1,53.1,30.44,West,260,0.0,0.0,100,0.00,CLR,,0.00,WeatherDisplay:10.37,2013-01-10 05:48:00,
2013-01-10 00:53:00,53.1,53.1,30.44,West,260,0.0,0.0,100,0.00,CLR,,0.00,WeatherDisplay:10.37,2013-01-10 05:53:00,
2013-01-10 00:58:00,53.1,53.1,30.44,West,260,0.0,0.0,100,0.00,CLR,,0.00,WeatherDisplay:10.37,2013-01-10 05:58:00,
2013-01-10 01:03:00,53.0,53.0,30.44,West,260,0.0,0.0,100,0.00,CLR,,0.00,WeatherDisplay:10.37,2013-01-10 06:03:00,
2013-01-10 01:08:00,52.8,52.8,30.44,West,260,0.0,0.0,100,0.00,CLR,,0.00,WeatherDisplay:10.37,2013-01-10 06:08:00,
2013-01-10 01:13:00,52.8,52.8,30.44,West,260,0.0,0.0,100,0.00,CLR,,0.00,WeatherDisplay:10.37,2013-01-10 06:13:00,
2013-01-10 01:18:00,52.7,52.7,30.44,West,260,0.0,0.0,100,0.00,CLR,,0.00,WeatherDisplay:10.37,2013-01-10 06:18:00,
2013-01-10 01:23:00,52.5,52.5,30.44,West,260,0.0,0.0,100,0.00,CLR,,0.00,WeatherDisplay:10.37,2013-01-10 06:23:00,
2013-01-10 01:28:00,52.3,52.3,30.44,West,260,0.0,0.0,100,0.00,CLR,,0.00,WeatherDisplay:10.37,2013-01-10 06:28:00,
2013-01-10 01:33:00,52.2,52.2,30.44,West,260,0.0,0.0,100,0.00,CLR,,0.00,WeatherDisplay:10.37,2013-01-10 06:33:00,
2013-01-10 01:38:00,52.1,52.1,30.44,West,260,0.0,0.0,100,0.00,CLR,,0.00,WeatherDisplay:10.37,2013-01-10 06:38:00,
2013-01-10 01:43:00,52.1,52.1,30.44,West,260,0.0,0.0,100,0.00,CLR,,0.00,WeatherDisplay:10.37,2013-01-10 06:43:00,
2013-01-10 01:48:00,52.1,52.1,30.45,West,260,0.0,0.0,100,0.00,CLR,,0.00,WeatherDisplay:10.37,2013-01-10 06:48:00,
2013-01-10 01:53:00,52.1,52.1,30.44,West,260,0.0,0.0,100,0.00,CLR,,0.00,WeatherDisplay:10.37,2013-01-10 06:53:00,
2013-01-10 01:58:00,52.0,52.0,30.45,West,260,0.0,0.0,100,0.00,CLR,,0.00,WeatherDisplay:10.37,2013-01-10 06:58:00,
2013-01-10 02:03:00,52.0,52.0,30.45,West,260,0.0,0.0,100,0.00,CLR,,0.00,WeatherDisplay:10.37,2013-01-10 07:03:00,
2013-01-10 02:08:00,51.9,51.9,30.45,West,260,0.0,0.0,100,0.00,CLR,,0.00,WeatherDisplay:10.37,2013-01-10 07:08:00,
2013-01-10 02:13:00,51.8,51.8,30.44,West,260,0.0,0.0,100,0.00,CLR,,0.00,WeatherDisplay:10.37,2013-01-10 07:13:00,
2013-01-10 02:18:00,51.5,51.5,30.44,West,260,0.0,0.0,100,0.00,CLR,,0.00,WeatherDisplay:10.37,2013-01-10 07:18:00,
2013-01-10 02:23:00,51.6,51.6,30.44,West,260,0.0,0.0,100,0.00,CLR,,0.00,WeatherDisplay:10.37,2013-01-10 07:23:00,
2013-01-10 02:28:00,51.7,51.7,30.44,West,260,0.0,0.0,100,0.00,CLR,,0.00,WeatherDisplay:10.37,2013-01-10 07:28:00,
2013-01-10 02:33:00,51.5,51.5,30.44,West,260,0.0,0.0,100,0.00,CLR,,0.00,WeatherDisplay:10.37,2013-01-10 07:33:00,
2013-01-10 02:38:00,51.4,51.4,30.44,West,260,0.0,0.0,100,0.00,CLR,,0.00,WeatherDisplay:10.37,2013-01-10 07:38:00,
2013-01-10 02:43:00,51.3,51.3,30.44,West,260,0.0,0.0,100,0.00,CLR,,0.00,WeatherDisplay:10.37,2013-01-10 07:43:00,
2013-01-10 02:48:00,51.1,51.1,30.45,West,260,0.0,0.0,100,0.00,CLR,,0.00,WeatherDisplay:10.37,2013-01-10 07:48:00,
2013-01-10 02:53:00,51.0,51.0,30.44,West,260,0.0,0.0,100,0.00,CLR,,0.00,WeatherDisplay:10.37,2013-01-10 07:53:00,
2013-01-10 02:58:00,51.0,51.0,30.44,West,260,0.0,0.0,100,0.00,CLR,,0.00,WeatherDisplay:10.37,2013-01-10 07:58:00,
2013-01-10 03:03:00,50.7,50.7,30.44,West,260,0.0,0.0,100,0.00,CLR,,0.00,WeatherDisplay:10.37,2013-01-10 08:03:00,
2013-01-10 03:08:00,50.9,50.9,30.44,West,260,0.0,0.0,100,0.00,CLR,,0.00,WeatherDisplay:10.37,2013-01-10 08:08:00,
2013-01-10 03:13:00,51.3,51.3,30.44,West,260,0.0,0.0,100,0.00,CLR,,0.00,WeatherDisplay:10.37,2013-01-10 08:13:00,
2013-01-10 03:18:00,51.3,51.3,30.44,West,260,0.0,0.0,100,0.00,CLR,,0.00,WeatherDisplay:10.37,2013-01-10 08:18:00,
2013-01-10 03:23:00,51.2,51.2,30.44,West,260,0.0,0.0,100,0.00,CLR,,0.00,WeatherDisplay:10.37,2013-01-10 08:23:00,
2013-01-10 03:28:00,51.1,51.1,30.44,West,260,0.0,0.0,100,0.00,CLR,,0.00,WeatherDisplay:10.37,2013-01-10 08:28:00,
2013-01-10 03:33:00,50.8,50.8,30.44,West,260,0.0,0.0,100,0.00,CLR,,0.00,WeatherDisplay:10.37,2013-01-10 08:33:00,
2013-01-10 03:38:00,50.7,50.7,30.44,West,260,0.0,0.0,100,0.00,CLR,,0.00,WeatherDisplay:10.37,2013-01-10 08:38:00,
2013-01-10 03:44:00,50.7,50.7,30.44,West,260,0.0,0.0,100,0.00,CLR,,0.00,WeatherDisplay:10.37,2013-01-10 08:44:00,
2013-01-10 03:49:00,50.3,50.3,30.44,West,260,0.0,0.0,100,0.00,CLR,,0.00,WeatherDisplay:10.37,2013-01-10 08:49:00,
2013-01-10 03:54:00,50.1,50.1,30.44,West,260,0.0,0.0,100,0.00,CLR,,0.00,WeatherDisplay:10.37,2013-01-10 08:54:00,
2013-01-10 03:59:00,49.9,49.9,30.44,West,260,0.0,0.0,100,0.00,CLR,,0.00,WeatherDisplay:10.37,2013-01-10 08:59:00,
2013-01-10 04:04:00,49.8,49.8,30.44,West,260,0.0,0.0,100,0.00,CLR,,0.00,WeatherDisplay:10.37,2013-01-10 09:04:00,
2013-01-10 04:09:00,49.7,49.7,30.44,West,260,0.0,0.0,100,0.00,CLR,,0.00,WeatherDisplay:10.37,2013-01-10 09:09:00,
2013-01-10 04:14:00,49.6,49.6,30.44,West,260,0.0,0.0,100,0.00,CLR,,0.00,WeatherDisplay:10.37,2013-01-10 09:14:00,
2013-01-10 04:19:00,49.4,49.4,30.44,West,260,0.0,0.0,100,0.00,CLR,,0.00,WeatherDisplay:10.37,2013-01-10 09:19:00,
2013-01-10 04:24:00,48.9,48.9,30.44,West,260,0.0,0.0,100,0.00,CLR,,0.00,WeatherDisplay:10.37,2013-01-10 09:24:00,
2013-01-10 04:29:00,48.9,48.9,30.44,West,260,0.0,0.0,100,0.00,CLR,,0.00,WeatherDisplay:10.37,2013-01-10 09:29:00,
2013-01-10 04:34:00,48.7,48.7,30.44,West,260,0.0,0.0,100,0.00,CLR,,0.00,WeatherDisplay:10.37,2013-01-10 09:34:00,
2013-01-10 04:39:00,48.6,48.6,30.44,West,260,0.0,0.0,100,0.00,CLR,,0.00,WeatherDisplay:10.37,2013-01-10 09:39:00,
2013-01-10 04:44:00,48.5,48.5,30.43,West,260,0.0,0.0,100,0.00,CLR,,0.00,WeatherDisplay:10.37,2013-01-10 09:44:00,
2013-01-10 04:49:00,48.7,48.7,30.43,West,260,0.0,0.0,100,0.00,CLR,,0.00,WeatherDisplay:10.37,2013-01-10 09:49:00,
2013-01-10 04:54:00,48.7,48.7,30.43,West,260,0.0,0.0,100,0.00,CLR,,0.00,WeatherDisplay:10.37,2013-01-10 09:54:00,
2013-01-10 04:59:00,48.5,48.5,30.43,West,260,0.0,0.0,100,0.00,CLR,,0.00,WeatherDisplay:10.37,2013-01-10 09:59:00,
2013-01-10 05:04:00,48.4,48.4,30.43,West,260,0.0,0.0,100,0.00,CLR,,0.00,WeatherDisplay:10.37,2013-01-10 10:04:00,
2013-01-10 05:09:00,48.4,48.4,30.43,West,260,0.0,0.0,100,0.00,CLR,,0.00,WeatherDisplay:10.37,2013-01-10 10:09:00,
2013-01-10 05:14:00,48.3,48.3,30.43,West,260,0.0,0.0,100,0.00,CLR,,0.00,WeatherDisplay:10.37,2013-01-10 10:14:00,
2013-01-10 05:19:00,48.3,48.3,30.43,West,260,0.0,0.0,100,0.00,CLR,,0.00,WeatherDisplay:10.37,2013-01-10 10:19:00,
2013-01-10 05:24:00,48.3,48.3,30.42,West,260,0.0,0.0,100,0.00,CLR,,0.00,WeatherDisplay:10.37,2013-01-10 10:24:00,
2013-01-10 05:29:00,48.2,48.2,30.42,West,260,0.0,0.0,100,0.00,CLR,,0.00,WeatherDisplay:10.37,2013-01-10 10:29:00,
2013-01-10 05:34:00,48.0,48.0,30.43,West,260,0.0,0.0,100,0.00,CLR,,0.00,WeatherDisplay:10.37,2013-01-10 10:34:00,
2013-01-10 05:39:00,47.9,47.9,30.43,West,260,0.0,0.0,100,0.00,CLR,,0.00,WeatherDisplay:10.37,2013-01-10 10:39:00,
2013-01-10 05:44:00,47.8,47.8,30.43,West,260,0.0,0.0,100,0.00,CLR,,0.00,WeatherDisplay:10.37,2013-01-10 10:44:00,
2013-01-10 05:49:00,47.7,47.7,30.43,West,260,0.0,0.0,100,0.00,CLR,,0.00,WeatherDisplay:10.37,2013-01-10 10:49:00,
2013-01-10 05:54:00,47.6,47.6,30.43,West,260,0.0,0.0,100,0.00,CLR,,0.00,WeatherDisplay:10.37,2013-01-10 10:54:00,
2013-01-10 05:59:00,47.6,47.6,30.43,West,260,0.0,0.0,100,0.00,CLR,,0.00,WeatherDisplay:10.37,2013-01-10 10:59:00,
2013-01-10 06:04:00,47.5,47.5,30.44,West,260,0.0,0.0,100,0.00,CLR,,0.00,WeatherDisplay:10.37,2013-01-10 11:04:00,
2013-01-10 06:09:00,47.5,47.5,30.44,West,260,0.0,0.0,100,0.00,CLR,,0.00,WeatherDisplay:10.37,2013-01-10 11:09:00,
2013-01-10 06:14:00,47.4,47.4,30.44,West,260,0.0,0.0,100,0.00,CLR,,0.00,WeatherDisplay:10.37,2013-01-10 11:14:00,
2013-01-10 06:19:00,47.5,47.5,30.44,West,260,0.0,0.0,100,0.00,CLR,,0.00,WeatherDisplay:10.37,2013-01-10 11:19:00,
2013-01-10 06:24:00,47.3,47.3,30.44,West,260,0.0,0.0,100,0.00,CLR,,0.00,WeatherDisplay:10.37,2013-01-10 11:24:00,
2013-01-10 06:29:00,48.0,48.0,30.44,West,260,0.0,0.0,100,0.00,CLR,,0.00,WeatherDisplay:10.37,2013-01-10 11:29:00,
2013-01-10 06:34:00,48.5,48.5,30.45,West,260,0.0,0.0,100,0.00,CLR,,0.00,WeatherDisplay:10.37,2013-01-10 11:34:00,
2013-01-10 06:39:00,49.1,49.1,30.44,West,260,0.0,0.0,100,0.00,CLR,,0.00,WeatherDisplay:10.37,2013-01-10 11:39:00,
2013-01-10 06:44:00,48.2,48.2,30.44,West,260,0.0,0.0,100,0.00,CLR,,0.00,WeatherDisplay:10.37,2013-01-10 11:44:00,
2013-01-10 06:49:00,47.6,47.6,30.44,West,260,0.0,0.0,100,0.00,CLR,,0.00,WeatherDisplay:10.37,2013-01-10 11:49:00,
2013-01-10 06:54:00,47.4,47.4,30.44,West,260,0.0,0.0,100,0.00,CLR,,0.00,WeatherDisplay:10.37,2013-01-10 11:54:00,
2013-01-10 06:59:00,47.4,47.4,30.44,West,260,0.0,0.0,100,0.00,CLR,,0.00,WeatherDisplay:10.37,2013-01-10 11:59:00,
2013-01-10 07:04:00,47.3,47.3,30.44,West,260,0.0,0.0,100,0.00,CLR,,0.00,WeatherDisplay:10.37,2013-01-10 12:04:00,
2013-01-10 07:09:00,47.4,47.4,30.44,West,260,0.0,0.0,100,0.00,CLR,,0.00,WeatherDisplay:10.37,2013-01-10 12:09:00,
2013-01-10 07:14:00,47.9,47.9,30.44,West,260,0.0,0.0,100,0.00,CLR,,0.00,WeatherDisplay:10.37,2013-01-10 12:14:00,
2013-01-10 07:19:00,49.2,49.2,30.45,West,260,0.0,0.0,100,0.00,CLR,,0.00,WeatherDisplay:10.37,2013-01-10 12:19:00,
2013-01-10 07:24:00,49.9,49.9,30.45,West,260,0.0,0.0,100,0.00,CLR,,0.00,WeatherDisplay:10.37,2013-01-10 12:24:00,
2013-01-10 07:29:00,50.0,50.0,30.45,West,260,0.0,0.0,100,0.00,CLR,,0.00,WeatherDisplay:10.37,2013-01-10 12:29:00,
2013-01-10 07:34:00,50.8,50.8,30.45,West,260,0.0,0.0,100,0.00,CLR,,0.00,WeatherDisplay:10.37,2013-01-10 12:34:00,
2013-01-10 07:39:00,51.3,51.3,30.45,West,260,0.0,0.0,100,0.00,CLR,,0.00,WeatherDisplay:10.37,2013-01-10 12:39:00,
2013-01-10 07:44:00,50.3,50.3,30.45,West,260,0.0,0.0,100,0.00,CLR,,0.00,WeatherDisplay:10.37,2013-01-10 12:44:00,
2013-01-10 07:49:00,49.2,49.2,30.45,West,260,0.0,0.0,100,0.00,CLR,,0.00,WeatherDisplay:10.37,2013-01-10 12:49:00,
2013-01-10 07:54:00,48.7,48.7,30.45,West,260,0.0,0.0,100,0.00,CLR,,0.00,WeatherDisplay:10.37,2013-01-10 12:54:00,
2013-01-10 07:59:00,48.3,48.3,30.45,West,260,0.0,0.0,100,0.00,CLR,,0.00,WeatherDisplay:10.37,2013-01-10 12:59:00,
2013-01-10 08:04:00,48.0,48.0,30.46,West,260,0.0,0.0,100,0.00,CLR,,0.00,WeatherDisplay:10.37,2013-01-10 13:04:00,
2013-01-10 08:09:00,47.9,47.9,30.46,West,260,0.0,0.0,100,0.00,CLR,,0.00,WeatherDisplay:10.37,2013-01-10 13:09:00,
2013-01-10 08:14:00,47.9,47.9,30.46,West,260,0.0,0.0,100,0.00,CLR,,0.00,WeatherDisplay:10.37,2013-01-10 13:14:00,
2013-01-10 08:19:00,48.2,48.2,30.47,West,260,0.0,0.0,100,0.00,CLR,,0.00,WeatherDisplay:10.37,2013-01-10 13:19:00,
2013-01-10 08:24:00,48.0,48.0,30.47,West,260,0.0,0.0,100,0.00,CLR,,0.00,WeatherDisplay:10.37,2013-01-10 13:24:00,
2013-01-10 08:29:00,48.0,48.0,30.48,West,260,0.0,0.0,100,0.00,CLR,,0.00,WeatherDisplay:10.37,2013-01-10 13:29:00,
2013-01-10 08:34:00,48.0,48.0,30.48,West,260,0.0,0.0,100,0.00,CLR,,0.00,WeatherDisplay:10.37,2013-01-10 13:34:00,
2013-01-10 08:39:00,48.1,48.1,30.48,West,260,0.0,0.0,100,0.00,CLR,,0.00,WeatherDisplay:10.37,2013-01-10 13:39:00,
2013-01-10 08:44:00,48.2,48.2,30.48,West,260,0.0,0.0,100,0.00,CLR,,0.00,WeatherDisplay:10.37,2013-01-10 13:44:00,
2013-01-10 08:49:00,48.6,48.6,30.48,West,260,0.0,0.0,100,0.00,CLR,,0.00,WeatherDisplay:10.37,2013-01-10 13:49:00,
2013-01-10 08:54:00,48.8,48.8,30.48,West,260,0.0,0.0,100,0.00,CLR,,0.00,WeatherDisplay:10.37,2013-01-10 13:54:00,
2013-01-10 08:59:00,49.0,49.0,30.49,West,260,0.0,0.0,100,0.00,CLR,,0.00,WeatherDisplay:10.37,2013-01-10 13:59:00,
2013-01-10 09:05:00,49.1,49.1,30.49,West,260,0.0,0.0,100,0.00,CLR,,0.00,WeatherDisplay:10.37,2013-01-10 14:05:00,
2013-01-10 09:10:00,49.1,49.1,30.49,West,260,0.0,0.0,100,0.00,CLR,,0.00,WeatherDisplay:10.37,2013-01-10 14:10:00,
2013-01-10 09:15:00,49.6,49.6,30.49,West,260,0.0,0.0,100,0.00,CLR,,0.00,WeatherDisplay:10.37,2013-01-10 14:15:00,
2013-01-10 09:20:00,49.9,49.9,30.50,West,260,0.0,0.0,100,0.00,CLR,,0.00,WeatherDisplay:10.37,2013-01-10 14:20:00,
2013-01-10 09:25:00,50.3,50.3,30.50,West,260,0.0,0.0,100,0.00,CLR,,0.00,WeatherDisplay:10.37,2013-01-10 14:25:00,
2013-01-10 09:30:00,50.7,50.7,30.50,West,260,0.0,0.0,100,0.00,CLR,,0.00,WeatherDisplay:10.37,2013-01-10 14:30:00,
2013-01-10 09:35:00,51.3,51.3,30.50,West,260,0.0,0.0,100,0.00,CLR,,0.00,WeatherDisplay:10.37,2013-01-10 14:35:00,
2013-01-10 09:40:00,51.9,51.9,30.50,West,260,0.0,0.0,100,0.00,CLR,,0.00,WeatherDisplay:10.37,2013-01-10 14:40:00,
2013-01-10 09:45:00,52.4,52.4,30.49,West,260,0.0,0.0,100,0.00,CLR,,0.00,WeatherDisplay:10.37,2013-01-10 14:45:00,
2013-01-10 09:50:00,52.8,52.8,30.49,NE,52,0.0,0.0,100,0.00,CLR,,0.00,WeatherDisplay:10.37,2013-01-10 14:50:00,
2013-01-10 09:55:00,53.2,53.2,30.50,NE,52,0.0,0.0,100,0.00,CLR,,0.00,WeatherDisplay:10.37,2013-01-10 14:55:00,
2013-01-10 10:00:00,53.5,53.5,30.49,NE,52,0.0,0.0,100,0.00,CLR,,0.00,WeatherDisplay:10.37,2013-01-10 15:00:00,
2013-01-10 10:05:00,54.0,54.0,30.50,NE,52,0.0,0.0,100,0.00,CLR,,0.00,WeatherDisplay:10.37,2013-01-10 15:05:00,
2013-01-10 10:10:00,54.5,54.5,30.50,NE,52,0.0,0.0,100,0.00,CLR,,0.00,WeatherDisplay:10.37,2013-01-10 15:10:00,
2013-01-10 10:15:00,55.1,55.1,30.50,NE,52,0.0,0.0,100,0.00,CLR,,0.00,WeatherDisplay:10.37,2013-01-10 15:15:00,
2013-01-10 10:20:00,55.7,55.7,30.50,NNE,14,3.5,3.5,100,0.00,CLR,,0.00,WeatherDisplay:10.37,2013-01-10 15:20:00,
2013-01-10 10:25:00,56.3,56.3,30.50,NW,326,0.0,0.0,100,0.00,CLR,,0.00,WeatherDisplay:10.37,2013-01-10 15:25:00,
2013-01-10 10:30:00,56.9,56.9,30.50,NE,42,4.6,4.6,100,0.00,CLR,,0.00,WeatherDisplay:10.37,2013-01-10 15:30:00,
2013-01-10 10:35:00,57.3,57.0,30.50,NNW,346,2.0,2.0,99,0.00,CLR,,0.00,WeatherDisplay:10.37,2013-01-10 15:35:00,
2013-01-10 10:40:00,57.7,57.1,30.50,North,7,2.3,2.3,98,0.00,CLR,,0.00,WeatherDisplay:10.37,2013-01-10 15:40:00,
2013-01-10 10:45:00,57.9,57.1,30.50,North,353,2.7,2.7,97,0.00,CLR,,0.00,WeatherDisplay:10.37,2013-01-10 15:45:00,
2013-01-10 10:50:00,58.1,57.0,30.49,NE,41,3.5,3.5,96,0.00,CLR,,0.00,WeatherDisplay:10.37,2013-01-10 15:50:00,
2013-01-10 10:55:00,58.6,57.5,30.49,North,6,2.1,2.1,96,0.00,CLR,,0.00,WeatherDisplay:10.37,2013-01-10 15:55:00,
2013-01-10 11:00:00,59.0,57.6,30.49,NNE,17,4.6,4.6,95,0.00,CLR,,0.00,WeatherDisplay:10.37,2013-01-10 16:00:00,
2013-01-10 11:05:00,59.4,57.4,30.49,North,7,3.5,3.5,93,0.00,CLR,,0.00,WeatherDisplay:10.37,2013-01-10 16:05:00,
2013-01-10 11:10:00,59.8,57.2,30.49,NNE,24,3.5,3.5,91,0.00,CLR,,0.00,WeatherDisplay:10.37,2013-01-10 16:10:00,
2013-01-10 11:15:00,60.4,57.1,30.49,NNW,332,4.6,4.6,89,0.00,CLR,,0.00,WeatherDisplay:10.37,2013-01-10 16:15:00,
2013-01-10 11:20:00,60.8,56.6,30.48,North,0,0.0,0.0,86,0.00,CLR,,0.00,WeatherDisplay:10.37,2013-01-10 16:20:00,
2013-01-10 11:25:00,61.2,56.7,30.48,NE,52,3.5,3.5,85,0.00,CLR,,0.00,WeatherDisplay:10.37,2013-01-10 16:25:00,
2013-01-10 11:30:00,61.6,56.4,30.48,NNE,14,3.5,3.5,83,0.00,CLR,,0.00,WeatherDisplay:10.37,2013-01-10 16:30:00,
2013-01-10 11:35:00,62.2,56.0,30.48,North,3,4.6,4.6,80,0.00,CLR,,0.00,WeatherDisplay:10.37,2013-01-10 16:35:00,
2013-01-10 11:40:00,62.5,55.9,30.48,North,10,2.3,2.3,79,0.00,CLR,,0.00,WeatherDisplay:10.37,2013-01-10 16:40:00,
2013-01-10 11:45:00,62.8,55.5,30.48,North,349,4.6,4.6,77,0.00,CLR,,0.00,WeatherDisplay:10.37,2013-01-10 16:45:00,
2013-01-10 11:50:00,63.2,55.1,30.47,WNW,289,1.1,1.1,75,0.00,CLR,,0.00,WeatherDisplay:10.37,2013-01-10 16:50:00,
2013-01-10 11:55:00,63.6,55.9,30.47,East,83,4.6,4.6,76,0.00,CLR,,0.00,WeatherDisplay:10.37,2013-01-10 16:55:00,
2013-01-10 12:00:00,64.0,54.8,30.46,NNE,32,1.1,1.1,72,0.00,CLR,,0.00,WeatherDisplay:10.37,2013-01-10 17:00:00,
2013-01-10 12:05:00,64.1,54.5,30.46,NNW,328,4.6,4.6,71,0.00,CLR,,0.00,WeatherDisplay:10.37,2013-01-10 17:05:00,
2013-01-10 12:10:00,64.1,54.9,30.45,WSW,257,1.1,1.1,72,0.00,CLR,,0.00,WeatherDisplay:10.37,2013-01-10 17:10:00,
2013-01-10 12:15:00,64.7,55.1,30.45,ENE,75,0.0,0.0,71,0.00,CLR,,0.00,WeatherDisplay:10.37,2013-01-10 17:15:00,
2013-01-10 12:20:00,65.1,54.3,30.45,North,1,2.3,2.3,68,0.00,CLR,,0.00,WeatherDisplay:10.37,2013-01-10 17:20:00,
2013-01-10 12:25:00,65.2,54.4,30.45,NNE,14,1.1,1.1,68,0.00,CLR,,0.00,WeatherDisplay:10.37,2013-01-10 17:25:00,
2013-01-10 12:30:00,65.6,53.9,30.44,NE,38,3.5,3.5,66,0.00,CLR,,0.00,WeatherDisplay:10.37,2013-01-10 17:30:00,
2013-01-10 12:35:00,65.5,53.8,30.44,WNW,282,0.7,0.7,66,0.00,CLR,,0.00,WeatherDisplay:10.37,2013-01-10 17:35:00,
2013-01-10 12:40:00,65.4,53.7,30.44,NNW,346,5.8,5.8,66,0.00,CLR,,0.00,WeatherDisplay:10.37,2013-01-10 17:40:00,
2013-01-10 12:45:00,65.6,53.9,30.43,NNE,25,2.3,0.0,66,0.00,CLR,,0.00,WeatherDisplay:10.37,2013-01-10 17:45:00,
2013-01-10 12:50:00,65.7,54.0,30.43,ENE,65,4.6,4.6,66,0.00,CLR,,0.00,WeatherDisplay:10.37,2013-01-10 17:50:00,
2013-01-10 12:55:00,66.1,54.0,30.42,WNW,294,3.5,3.5,65,0.00,CLR,,0.00,WeatherDisplay:10.37,2013-01-10 17:55:00,
2013-01-10 13:00:00,66.6,54.0,30.42,North,357,2.3,2.3,64,0.00,CLR,,0.00,WeatherDisplay:10.37,2013-01-10 18:00:00,
2013-01-10 13:05:00,66.4,53.4,30.42,North,10,4.6,4.6,63,0.00,CLR,,0.00,WeatherDisplay:10.37,2013-01-10 18:05:00,
2013-01-10 13:10:00,66.3,53.8,30.42,NNW,346,3.2,3.2,64,0.00,CLR,,0.00,WeatherDisplay:10.37,2013-01-10 18:10:00,
2013-01-10 13:15:00,66.2,53.7,30.42,NNE,17,2.1,2.1,64,0.00,CLR,,0.00,WeatherDisplay:10.37,2013-01-10 18:15:00,
2013-01-10 13:20:00,66.2,53.7,30.42,NNW,330,3.5,3.5,64,0.00,CLR,,0.00,WeatherDisplay:10.37,2013-01-10 18:20:00,
2013-01-10 13:25:00,66.1,53.6,30.42,ENE,71,1.1,1.1,64,0.00,CLR,,0.00,WeatherDisplay:10.37,2013-01-10 18:25:00,
2013-01-10 13:30:00,66.4,54.7,30.41,ENE,58,0.0,0.0,66,0.00,CLR,,0.00,WeatherDisplay:10.37,2013-01-10 18:30:00,
2013-01-10 13:35:00,66.7,53.7,30.41,NW,320,1.3,1.3,63,0.00,CLR,,0.00,WeatherDisplay:10.37,2013-01-10 18:35:00,
2013-01-10 13:40:00,66.3,53.3,30.41,NE,47,1.1,0.0,63,0.00,CLR,,0.00,WeatherDisplay:10.37,2013-01-10 18:40:00,
2013-01-10 13:45:00,66.1,53.6,30.41,NE,47,2.3,2.3,64,0.00,CLR,,0.00,WeatherDisplay:10.37,2013-01-10 18:45:00,
2013-01-10 13:50:00,66.1,53.6,30.41,North,3,0.0,0.4,64,0.00,CLR,,0.00,WeatherDisplay:10.37,2013-01-10 18:50:00,
2013-01-10 13:55:00,66.3,53.3,30.40,NW,315,1.1,1.1,63,0.00,CLR,,0.00,WeatherDisplay:10.37,2013-01-10 18:55:00,
2013-01-10 14:00:00,66.6,53.2,30.40,NNE,31,1.2,1.2,62,0.00,CLR,,0.00,WeatherDisplay:10.37,2013-01-10 19:00:00,
2013-01-10 14:05:00,66.9,53.0,30.40,NNE,20,4.6,4.6,61,0.00,CLR,,0.00,WeatherDisplay:10.37,2013-01-10 19:05:00,
2013-01-10 14:10:00,67.1,53.2,30.40,ENE,73,4.6,4.6,61,0.00,CLR,,0.00,WeatherDisplay:10.37,2013-01-10 19:10:00,
2013-01-10 14:15:00,67.2,53.3,30.40,North,4,3.2,3.2,61,0.00,CLR,,0.00,WeatherDisplay:10.37,2013-01-10 19:15:00,
2013-01-10 14:20:00,67.0,53.1,30.40,North,0,0.0,0.0,61,0.00,CLR,,0.00,WeatherDisplay:10.37,2013-01-10 19:20:00,
2013-01-10 14:25:00,66.8,52.9,30.40,NNE,25,3.5,3.5,61,0.00,CLR,,0.00,WeatherDisplay:10.37,2013-01-10 19:25:00,
2013-01-10 14:30:00,67.0,53.1,30.40,North,8,3.5,3.5,61,0.00,CLR,,0.00,WeatherDisplay:10.37,2013-01-10 19:30:00,
2013-01-10 14:36:00,67.0,53.1,30.40,North,360,2.3,2.3,61,0.00,CLR,,0.00,WeatherDisplay:10.37,2013-01-10 19:36:00,
2013-01-10 14:41:00,66.7,52.4,30.40,NNE,23,3.5,3.5,60,0.00,CLR,,0.00,WeatherDisplay:10.37,2013-01-10 19:41:00,
2013-01-10 14:46:00,66.6,52.7,30.40,NE,40,0.9,0.9,61,0.00,CLR,,0.00,WeatherDisplay:10.37,2013-01-10 19:46:00,
2013-01-10 14:51:00,66.7,52.8,30.40,NE,42,1.1,0.0,61,0.00,CLR,,0.00,WeatherDisplay:10.37,2013-01-10 19:51:00,
2013-01-10 14:56:00,66.8,52.9,30.40,NNW,328,2.3,0.0,61,0.00,CLR,,0.00,WeatherDisplay:10.37,2013-01-10 19:56:00,
2013-01-10 15:01:00,67.0,52.7,30.39,NE,49,2.3,2.3,60,0.00,CLR,,0.00,WeatherDisplay:10.37,2013-01-10 20:01:00,
2013-01-10 15:06:00,67.3,52.9,30.39,North,8,0.0,0.0,60,0.00,CLR,,0.00,WeatherDisplay:10.37,2013-01-10 20:06:00,
2013-01-10 15:11:00,67.7,52.9,30.39,ENE,65,2.3,2.3,59,0.00,CLR,,0.00,WeatherDisplay:10.37,2013-01-10 20:11:00,
2013-01-10 15:16:00,67.9,52.6,30.39,NE,44,0.0,0.0,58,0.00,CLR,,0.00,WeatherDisplay:10.37,2013-01-10 20:16:00,
2013-01-10 15:21:00,67.9,52.6,30.40,North,8,1.1,1.1,58,0.00,CLR,,0.00,WeatherDisplay:10.37,2013-01-10 20:21:00,
2013-01-10 15:26:00,67.8,52.5,30.39,NE,38,4.6,4.6,58,0.00,CLR,,0.00,WeatherDisplay:10.37,2013-01-10 20:26:00,
2013-01-10 15:31:00,67.8,52.5,30.39,North,360,4.6,4.6,58,0.00,CLR,,0.00,WeatherDisplay:10.37,2013-01-10 20:31:00,
2013-01-10 15:36:00,67.7,52.4,30.39,NNE,23,3.5,3.5,58,0.00,CLR,,0.00,WeatherDisplay:10.37,2013-01-10 20:36:00,
2013-01-10 15:41:00,67.7,52.4,30.39,ENE,64,0.0,0.0,58,0.00,CLR,,0.00,WeatherDisplay:10.37,2013-01-10 20:41:00,
2013-01-10 15:46:00,67.8,52.5,30.39,ENE,62,4.6,4.6,58,0.00,CLR,,0.00,WeatherDisplay:10.37,2013-01-10 20:46:00,
2013-01-10 15:51:00,67.8,53.4,30.39,ENE,66,0.0,0.0,60,0.00,CLR,,0.00,WeatherDisplay:10.37,2013-01-10 20:51:00,
2013-01-10 15:56:00,67.8,52.9,30.39,NE,37,1.1,0.0,59,0.00,CLR,,0.00,WeatherDisplay:10.37,2013-01-10 20:56:00,
2013-01-10 16:01:00,67.4,52.6,30.39,NW,318,4.6,0.0,59,0.00,CLR,,0.00,WeatherDisplay:10.37,2013-01-10 21:01:00,
2013-01-10 16:06:00,67.3,52.5,30.40,NW,318,0.6,0.6,59,0.00,CLR,,0.00,WeatherDisplay:10.37,2013-01-10 21:06:00,
2013-01-10 16:11:00,67.4,52.6,30.40,NW,305,1.1,1.1,59,0.00,CLR,,0.00,WeatherDisplay:10.37,2013-01-10 21:11:00,
2013-01-10 16:16:00,67.3,52.5,30.40,North,0,0.0,0.0,59,0.00,CLR,,0.00,WeatherDisplay:10.37,2013-01-10 21:16:00,
2013-01-10 16:21:00,67.2,52.4,30.40,NNE,24,1.1,0.0,59,0.00,CLR,,0.00,WeatherDisplay:10.37,2013-01-10 21:21:00,
2013-01-10 16:26:00,67.1,52.3,30.40,NE,35,3.5,0.0,59,0.00,CLR,,0.00,WeatherDisplay:10.37,2013-01-10 21:26:00,
2013-01-10 16:31:00,67.1,52.7,30.40,NE,35,0.0,0.0,60,0.00,CLR,,0.00,WeatherDisplay:10.37,2013-01-10 21:31:00,
2013-01-10 16:36:00,66.8,52.5,30.40,NE,35,0.0,0.0,60,0.00,CLR,,0.00,WeatherDisplay:10.37,2013-01-10 21:36:00,
2013-01-10 16:41:00,66.7,52.4,30.40,NNW,335,3.5,0.0,60,0.00,CLR,,0.00,WeatherDisplay:10.37,2013-01-10 21:41:00,
2013-01-10 16:46:00,66.5,52.6,30.40,NNW,335,0.0,0.0,61,0.00,CLR,,0.00,WeatherDisplay:10.37,2013-01-10 21:46:00,
2013-01-10 16:52:00,66.2,52.8,30.40,NNW,335,0.0,0.0,62,0.00,CLR,,0.00,WeatherDisplay:10.37,2013-01-10 21:52:00,
2013-01-10 16:57:00,66.1,53.6,30.40,NNW,335,0.0,0.0,64,0.00,CLR,,0.00,WeatherDisplay:10.37,2013-01-10 21:57:00,
2013-01-10 17:02:00,66.3,52.9,30.40,North,353,1.1,1.1,62,0.00,CLR,,0.00,WeatherDisplay:10.37,2013-01-10 22:02:00,
2013-01-10 17:07:00,66.4,53.4,30.40,North,353,0.0,0.0,63,0.00,CLR,,0.00,WeatherDisplay:10.37,2013-01-10 22:07:00,
2013-01-10 17:12:00,66.4,53.8,30.40,NNW,340,0.0,0.0,64,0.00,CLR,,0.00,WeatherDisplay:10.37,2013-01-10 22:12:00,
2013-01-10 17:17:00,66.7,53.7,30.40,North,3,1.1,1.1,63,0.00,CLR,,0.00,WeatherDisplay:10.37,2013-01-10 22:17:00,
2013-01-10 17:22:00,66.8,55.1,30.40,North,3,0.0,0.0,66,0.00,CLR,,0.00,WeatherDisplay:10.37,2013-01-10 22:22:00,
2013-01-10 17:27:00,66.9,54.3,30.40,North,3,0.0,0.0,64,0.00,CLR,,0.00,WeatherDisplay:10.37,2013-01-10 22:27:00,
2013-01-10 17:32:00,67.0,54.4,30.40,North,3,0.0,0.0,64,0.00,CLR,,0.00,WeatherDisplay:10.37,2013-01-10 22:32:00,
2013-01-10 17:37:00,66.7,53.7,30.40,North,3,0.0,0.0,63,0.00,CLR,,0.00,WeatherDisplay:10.37,2013-01-10 22:37:00,
2013-01-10 17:42:00,66.1,53.6,30.40,North,3,0.0,0.0,64,0.00,CLR,,0.00,WeatherDisplay:10.37,2013-01-10 22:42:00,
2013-01-10 17:47:00,65.7,53.6,30.40,North,3,0.0,0.0,65,0.00,CLR,,0.00,WeatherDisplay:10.37,2013-01-10 22:47:00,
2013-01-10 17:52:00,65.4,53.3,30.40,North,3,0.0,0.0,65,0.00,CLR,,0.00,WeatherDisplay:10.37,2013-01-10 22:52:00,
2013-01-10 17:57:00,65.0,52.9,30.40,North,3,0.0,0.0,65,0.00,CLR,,0.00,WeatherDisplay:10.37,2013-01-10 22:57:00,
2013-01-10 18:02:00,64.8,54.0,30.40,North,3,0.0,0.0,68,0.00,CLR,,0.00,WeatherDisplay:10.37,2013-01-10 23:02:00,
2013-01-10 18:07:00,65.0,55.8,30.40,North,3,0.0,0.0,72,0.00,CLR,,0.00,WeatherDisplay:10.37,2013-01-10 23:07:00,
2013-01-10 18:12:00,65.0,54.2,30.40,North,3,0.0,0.0,68,0.00,CLR,,0.00,WeatherDisplay:10.37,2013-01-10 23:12:00,
2013-01-10 18:17:00,64.8,53.6,30.40,North,3,0.0,0.0,67,0.00,CLR,,0.00,WeatherDisplay:10.37,2013-01-10 23:17:00,
2013-01-10 18:22:00,64.2,53.4,30.40,North,3,0.0,0.0,68,0.00,CLR,,0.00,WeatherDisplay:10.37,2013-01-10 23:22:00,
2013-01-10 18:27:00,63.8,53.0,30.40,North,3,0.0,0.0,68,0.00,CLR,,0.00,WeatherDisplay:10.37,2013-01-10 23:27:00,
2013-01-10 18:32:00,63.4,53.4,30.40,North,3,0.0,0.0,70,0.00,CLR,,0.00,WeatherDisplay:10.37,2013-01-10 23:32:00,
2013-01-10 18:37:00,62.9,53.0,30.39,North,3,0.0,0.0,70,0.00,CLR,,0.00,WeatherDisplay:10.37,2013-01-10 23:37:00,
2013-01-10 18:42:00,62.7,53.2,30.39,North,3,0.0,0.0,71,0.00,CLR,,0.00,WeatherDisplay:10.37,2013-01-10 23:42:00,
2013-01-10 18:48:00,62.6,53.1,30.39,North,3,0.0,0.0,71,0.00,CLR,,0.00,WeatherDisplay:10.37,2013-01-10 23:48:00,
2013-01-10 18:53:00,62.5,53.0,30.39,North,3,0.0,0.0,71,0.00,CLR,,0.00,WeatherDisplay:10.37,2013-01-10 23:53:00,
2013-01-10 18:58:00,62.4,52.9,30.39,North,3,0.0,0.0,71,0.00,CLR,,0.00,WeatherDisplay:10.37,2013-01-10 23:58:00,
2013-01-10 19:03:00,62.0,53.2,30.39,North,3,0.0,0.0,73,0.00,CLR,,0.00,WeatherDisplay:10.37,2013-01-11 00:03:00,
2013-01-10 19:08:00,61.6,53.2,30.39,North,3,0.0,0.0,74,0.00,CLR,,0.00,WeatherDisplay:10.37,2013-01-11 00:08:00,
2013-01-10 19:13:00,61.1,53.1,30.39,North,3,0.0,0.0,75,0.00,CLR,,0.00,WeatherDisplay:10.37,2013-01-11 00:13:00,
2013-01-10 19:18:00,60.9,53.6,30.39,North,3,0.0,0.0,77,0.00,CLR,,0.00,WeatherDisplay:10.37,2013-01-11 00:18:00,
2013-01-10 19:23:00,60.7,53.8,30.39,North,3,0.0,0.0,78,0.00,CLR,,0.00,WeatherDisplay:10.37,2013-01-11 00:23:00,
2013-01-10 19:28:00,60.6,53.7,30.39,North,3,0.0,0.0,78,0.00,CLR,,0.00,WeatherDisplay:10.37,2013-01-11 00:28:00,
2013-01-10 19:33:00,60.4,53.5,30.38,North,3,0.0,0.0,78,0.00,CLR,,0.00,WeatherDisplay:10.37,2013-01-11 00:33:00,
2013-01-10 19:38:00,60.4,53.9,30.39,North,3,0.0,0.0,79,0.00,CLR,,0.00,WeatherDisplay:10.37,2013-01-11 00:38:00,
2013-01-10 19:43:00,60.4,53.9,30.38,North,3,0.0,0.0,79,0.00,CLR,,0.00,WeatherDisplay:10.37,2013-01-11 00:43:00,
2013-01-10 19:48:00,60.4,54.2,30.39,North,3,0.0,0.0,80,0.00,CLR,,0.00,WeatherDisplay:10.37,2013-01-11 00:48:00,
2013-01-10 19:53:00,60.4,53.9,30.39,North,3,0.0,0.0,79,0.00,CLR,,0.00,WeatherDisplay:10.37,2013-01-11 00:53:00,
2013-01-10 19:58:00,60.3,54.1,30.38,North,3,0.0,0.0,80,0.00,CLR,,0.00,WeatherDisplay:10.37,2013-01-11 00:58:00,
2013-01-10 20:03:00,60.3,54.1,30.38,North,3,0.0,0.0,80,0.00,CLR,,0.00,WeatherDisplay:10.37,2013-01-11 01:03:00,
2013-01-10 20:08:00,60.4,54.2,30.38,North,3,0.0,0.0,80,0.00,CLR,,0.00,WeatherDisplay:10.37,2013-01-11 01:08:00,
2013-01-10 20:13:00,60.4,54.2,30.38,North,3,0.0,0.0,80,0.00,CLR,,0.00,WeatherDisplay:10.37,2013-01-11 01:13:00,
2013-01-10 20:19:00,60.4,54.2,30.38,North,3,0.0,0.0,80,0.00,CLR,,0.00,WeatherDisplay:10.37,2013-01-11 01:19:00,
2013-01-10 20:24:00,60.4,54.2,30.38,North,3,0.0,0.0,80,0.00,CLR,,0.00,WeatherDisplay:10.37,2013-01-11 01:24:00,
2013-01-10 20:29:00,60.4,54.2,30.38,North,3,0.0,0.0,80,0.00,CLR,,0.00,WeatherDisplay:10.37,2013-01-11 01:29:00,
2013-01-10 20:34:00,60.4,53.9,30.38,North,3,0.0,0.0,79,0.00,CLR,,0.00,WeatherDisplay:10.37,2013-01-11 01:34:00,
2013-01-10 20:39:00,60.5,54.0,30.38,North,3,0.0,0.0,79,0.00,CLR,,0.00,WeatherDisplay:10.37,2013-01-11 01:39:00,
2013-01-10 20:44:00,60.7,54.5,30.38,North,3,0.0,0.0,80,0.00,CLR,,0.00,WeatherDisplay:10.37,2013-01-11 01:44:00,
2013-01-10 20:49:00,60.7,53.8,30.38,North,359,0.0,0.0,78,0.00,CLR,,0.00,WeatherDisplay:10.37,2013-01-11 01:49:00,
2013-01-10 20:54:00,60.8,53.9,30.38,North,359,0.0,0.0,78,0.00,CLR,,0.00,WeatherDisplay:10.37,2013-01-11 01:54:00,
2013-01-10 20:59:00,60.9,54.0,30.38,North,359,0.0,0.0,78,0.00,CLR,,0.00,WeatherDisplay:10.37,2013-01-11 01:59:00,
2013-01-10 21:04:00,60.9,54.0,30.38,North,359,0.0,0.0,78,0.00,CLR,,0.00,WeatherDisplay:10.37,2013-01-11 02:04:00,
2013-01-10 21:09:00,61.0,53.7,30.38,North,359,0.0,0.0,77,0.00,CLR,,0.00,WeatherDisplay:10.37,2013-01-11 02:09:00,
2013-01-10 21:14:00,61.0,53.7,30.38,North,359,0.0,0.0,77,0.00,CLR,,0.00,WeatherDisplay:10.37,2013-01-11 02:14:00,
2013-01-10 21:19:00,61.1,53.8,30.38,North,359,0.0,0.0,77,0.00,CLR,,0.00,WeatherDisplay:10.37,2013-01-11 02:19:00,
2013-01-10 21:24:00,61.1,53.8,30.38,North,359,0.0,0.0,77,0.00,CLR,,0.00,WeatherDisplay:10.37,2013-01-11 02:24:00,
2013-01-10 21:29:00,61.0,54.1,30.37,North,359,0.0,0.0,78,0.00,CLR,,0.00,WeatherDisplay:10.37,2013-01-11 02:29:00,
2013-01-10 21:34:00,61.0,54.8,30.37,North,359,0.0,0.0,80,0.00,CLR,,0.00,WeatherDisplay:10.37,2013-01-11 02:34:00,
2013-01-10 21:39:00,60.9,54.7,30.38,North,359,0.0,0.0,80,0.00,CLR,,0.00,WeatherDisplay:10.37,2013-01-11 02:39:00,
2013-01-10 21:44:00,60.9,55.0,30.37,North,359,0.0,0.0,81,0.00,CLR,,0.00,WeatherDisplay:10.37,2013-01-11 02:44:00,
2013-01-10 21:49:00,60.8,55.3,30.37,North,359,0.0,0.0,82,0.00,CLR,,0.00,WeatherDisplay:10.37,2013-01-11 02:49:00,
2013-01-10 21:54:00,60.6,55.4,30.37,North,359,0.0,0.0,83,0.00,CLR,,0.00,WeatherDisplay:10.37,2013-01-11 02:54:00,
2013-01-10 21:59:00,60.5,55.6,30.37,North,359,0.0,0.0,84,0.00,CLR,,0.00,WeatherDisplay:10.37,2013-01-11 02:59:00,
2013-01-10 22:05:00,60.3,55.4,30.37,North,359,0.0,0.0,84,0.00,CLR,,0.00,WeatherDisplay:10.37,2013-01-11 03:05:00,
2013-01-10 22:10:00,60.2,55.3,30.36,North,359,0.0,0.0,84,0.00,CLR,,0.00,WeatherDisplay:10.37,2013-01-11 03:10:00,
2013-01-10 22:15:00,60.3,55.4,30.36,North,359,0.0,0.0,84,0.00,CLR,,0.00,WeatherDisplay:10.37,2013-01-11 03:15:00,
2013-01-10 22:20:00,60.2,55.3,30.36,North,359,0.0,0.0,84,0.00,CLR,,0.00,WeatherDisplay:10.37,2013-01-11 03:20:00,
2013-01-10 22:25:00,60.3,55.4,30.36,North,359,0.0,0.0,84,0.00,CLR,,0.00,WeatherDisplay:10.37,2013-01-11 03:25:00,
2013-01-10 22:30:00,60.3,55.8,30.36,North,359,0.0,0.0,85,0.00,CLR,,0.00,WeatherDisplay:10.37,2013-01-11 03:30:00,
2013-01-10 22:35:00,60.3,55.8,30.36,North,359,0.0,0.0,85,0.00,CLR,,0.00,WeatherDisplay:10.37,2013-01-11 03:35:00,
2013-01-10 22:40:00,60.2,55.7,30.36,North,359,0.0,0.0,85,0.00,CLR,,0.00,WeatherDisplay:10.37,2013-01-11 03:40:00,
2013-01-10 22:45:00,60.1,55.9,30.36,East,97,4.6,4.6,86,0.00,CLR,,0.00,WeatherDisplay:10.37,2013-01-11 03:45:00,
2013-01-10 22:50:00,60.0,56.4,30.36,NE,38,0.0,0.0,88,0.00,CLR,,0.00,WeatherDisplay:10.37,2013-01-11 03:50:00,
2013-01-10 22:55:00,59.9,57.0,30.36,NE,38,0.0,0.0,90,0.00,CLR,,0.00,WeatherDisplay:10.37,2013-01-11 03:55:00,
2013-01-10 23:00:00,59.5,57.2,30.36,NE,38,0.0,0.0,92,0.01,RA,,0.01,WeatherDisplay:10.37,2013-01-11 04:00:00,
2013-01-10 23:05:00,59.5,58.1,30.36,NE,38,0.0,0.0,95,0.01,RA,,0.01,WeatherDisplay:10.37,2013-01-11 04:05:00,
2013-01-10 23:10:00,59.4,58.3,30.36,NE,38,0.0,0.0,96,0.02,RA,,0.02,WeatherDisplay:10.37,2013-01-11 04:10:00,
2013-01-10 23:16:00,59.2,58.3,30.36,NE,38,0.0,0.0,97,0.02,RA,,0.02,WeatherDisplay:10.37,2013-01-11 04:16:00,
2013-01-10 23:21:00,59.0,58.4,30.36,NE,38,0.0,0.0,98,0.02,,,0.02,WeatherDisplay:10.37,2013-01-11 04:21:00,
2013-01-10 23:26:00,58.8,58.5,30.36,NE,38,0.0,0.0,99,0.02,CLR,,0.02,WeatherDisplay:10.37,2013-01-11 04:26:00,
2013-01-10 23:31:00,58.4,58.1,30.36,NE,38,0.0,0.0,99,0.03,RA,,0.03,WeatherDisplay:10.37,2013-01-11 04:31:00,
2013-01-10 23:36:00,58.2,58.2,30.35,NE,38,0.0,0.0,100,0.03,RA,,0.03,WeatherDisplay:10.37,2013-01-11 04:36:00,
2013-01-10 23:41:00,58.1,57.8,30.35,East,93,0.0,0.0,99,0.03,,,0.03,WeatherDisplay:10.37,2013-01-11 04:41:00,
2013-01-10 23:46:00,58.1,57.5,30.35,East,93,0.0,0.0,98,0.03,CLR,,0.03,WeatherDisplay:10.37,2013-01-11 04:46:00,
2013-01-10 23:51:00,58.1,57.5,30.35,East,85,0.0,0.0,98,0.03,CLR,,0.03,WeatherDisplay:10.37,2013-01-11 04:51:00,
2013-01-10 23:56:00,58.1,57.8,30.35,NNE,16,3.5,3.5,99,0.03,CLR,,0.03,WeatherDisplay:10.37,2013-01-11 04:56:00,